sensor_id;sensor_type;location;lat;lon;timestamp;P1;durP1;ratioP1;P2;durP2;ratioP2
46355;SDS011;32066;49.474;11.106;2022-12-29T00:00:01;4.13;;;1.80;;
46355;SDS011;32066;49.474;11.106;2022-12-29T00:05:06;4.95;;;1.77;;
46355;SDS011;32066;49.474;11.106;2022-12-29T00:07:33;3.67;;;1.70;;
46355;SDS011;32066;49.474;11.106;2022-12-29T00:10:00;5.65;;;1.70;;
46355;SDS011;32066;49.474;11.106;2022-12-29T00:12:27;4.35;;;1.75;;
46355;SDS011;32066;49.474;11.106;2022-12-29T00:15:14;4.20;;;1.70;;
46355;SDS011;32066;49.474;11.106;2022-12-29T00:18:00;4.38;;;1.90;;
46355;SDS011;32066;49.474;11.106;2022-12-29T00:20:27;4.72;;;1.90;;
46355;SDS011;32066;49.474;11.106;2022-12-29T00:23:11;4.45;;;1.70;;
46355;SDS011;32066;49.474;11.106;2022-12-29T00:25:56;4.45;;;1.90;;
46355;SDS011;32066;49.474;11.106;2022-12-29T00:28:40;5.05;;;1.50;;
46355;SDS011;32066;49.474;11.106;2022-12-29T00:31:25;4.30;;;1.80;;
46355;SDS011;32066;49.474;11.106;2022-12-29T00:34:12;4.50;;;1.90;;
46355;SDS011;32066;49.474;11.106;2022-12-29T00:36:57;4.85;;;1.73;;
46355;SDS011;32066;49.474;11.106;2022-12-29T00:39:25;4.72;;;2.20;;
46355;SDS011;32066;49.474;11.106;2022-12-29T00:42:10;4.45;;;1.90;;
46355;SDS011;32066;49.474;11.106;2022-12-29T00:44:54;3.75;;;1.60;;
46355;SDS011;32066;49.474;11.106;2022-12-29T00:47:21;5.25;;;1.80;;
46355;SDS011;32066;49.474;11.106;2022-12-29T00:49:49;4.13;;;1.63;;
46355;SDS011;32066;49.474;11.106;2022-12-29T00:52:16;4.55;;;1.90;;
46355;SDS011;32066;49.474;11.106;2022-12-29T00:54:44;4.03;;;1.75;;
46355;SDS011;32066;49.474;11.106;2022-12-29T00:57:11;4.15;;;1.65;;
46355;SDS011;32066;49.474;11.106;2022-12-29T00:59:38;5.15;;;1.70;;
46355;SDS011;32066;49.474;11.106;2022-12-29T01:02:06;6.65;;;1.98;;
46355;SDS011;32066;49.474;11.106;2022-12-29T01:04:33;4.32;;;1.70;;
46355;SDS011;32066;49.474;11.106;2022-12-29T01:07:02;4.70;;;1.73;;
46355;SDS011;32066;49.474;11.106;2022-12-29T01:09:30;4.30;;;1.80;;
46355;SDS011;32066;49.474;11.106;2022-12-29T01:12:15;5.20;;;1.80;;
46355;SDS011;32066;49.474;11.106;2022-12-29T01:14:42;4.47;;;1.90;;
46355;SDS011;32066;49.474;11.106;2022-12-29T01:17:09;4.13;;;1.90;;
46355;SDS011;32066;49.474;11.106;2022-12-29T01:19:35;6.05;;;2.10;;
46355;SDS011;32066;49.474;11.106;2022-12-29T01:22:04;3.67;;;1.70;;
46355;SDS011;32066;49.474;11.106;2022-12-29T01:24:31;4.10;;;1.80;;
46355;SDS011;32066;49.474;11.106;2022-12-29T01:26:57;4.80;;;1.70;;
46355;SDS011;32066;49.474;11.106;2022-12-29T01:29:24;6.18;;;2.00;;
46355;SDS011;32066;49.474;11.106;2022-12-29T01:31:51;4.40;;;1.63;;
46355;SDS011;32066;49.474;11.106;2022-12-29T01:34:18;5.68;;;1.80;;
46355;SDS011;32066;49.474;11.106;2022-12-29T01:36:45;4.20;;;1.70;;
46355;SDS011;32066;49.474;11.106;2022-12-29T01:39:13;5.32;;;2.00;;
46355;SDS011;32066;49.474;11.106;2022-12-29T01:41:40;4.47;;;1.80;;
46355;SDS011;32066;49.474;11.106;2022-12-29T01:47:12;4.55;;;1.75;;
46355;SDS011;32066;49.474;11.106;2022-12-29T01:49:40;5.05;;;1.90;;
46355;SDS011;32066;49.474;11.106;2022-12-29T01:52:07;5.53;;;2.00;;
46355;SDS011;32066;49.474;11.106;2022-12-29T01:54:36;4.63;;;2.00;;
46355;SDS011;32066;49.474;11.106;2022-12-29T01:57:09;5.25;;;2.15;;
46355;SDS011;32066;49.474;11.106;2022-12-29T01:59:40;6.28;;;2.13;;
46355;SDS011;32066;49.474;11.106;2022-12-29T02:02:12;4.30;;;1.80;;
46355;SDS011;32066;49.474;11.106;2022-12-29T02:04:39;4.43;;;2.00;;
46355;SDS011;32066;49.474;11.106;2022-12-29T02:07:10;5.70;;;1.98;;
46355;SDS011;32066;49.474;11.106;2022-12-29T02:09:42;4.75;;;2.45;;
46355;SDS011;32066;49.474;11.106;2022-12-29T02:12:14;4.35;;;2.00;;
46355;SDS011;32066;49.474;11.106;2022-12-29T02:14:42;3.83;;;1.65;;
46355;SDS011;32066;49.474;11.106;2022-12-29T02:17:10;4.47;;;1.75;;
46355;SDS011;32066;49.474;11.106;2022-12-29T02:22:43;6.10;;;2.00;;
46355;SDS011;32066;49.474;11.106;2022-12-29T02:31:29;4.45;;;1.85;;
46355;SDS011;32066;49.474;11.106;2022-12-29T02:34:01;4.13;;;1.73;;
46355;SDS011;32066;49.474;11.106;2022-12-29T02:36:39;6.10;;;1.90;;
46355;SDS011;32066;49.474;11.106;2022-12-29T02:39:12;5.18;;;1.73;;
46355;SDS011;32066;49.474;11.106;2022-12-29T02:41:49;5.43;;;2.00;;
46355;SDS011;32066;49.474;11.106;2022-12-29T02:44:25;4.40;;;1.85;;
46355;SDS011;32066;49.474;11.106;2022-12-29T02:46:58;5.93;;;1.90;;
46355;SDS011;32066;49.474;11.106;2022-12-29T02:49:31;4.07;;;1.88;;
46355;SDS011;32066;49.474;11.106;2022-12-29T02:52:03;4.18;;;1.85;;
46355;SDS011;32066;49.474;11.106;2022-12-29T02:54:33;3.83;;;1.60;;
46355;SDS011;32066;49.474;11.106;2022-12-29T02:57:10;4.13;;;1.90;;
46355;SDS011;32066;49.474;11.106;2022-12-29T02:59:39;4.70;;;1.88;;
46355;SDS011;32066;49.474;11.106;2022-12-29T03:02:24;5.63;;;2.00;;
46355;SDS011;32066;49.474;11.106;2022-12-29T03:05:14;3.90;;;1.60;;
46355;SDS011;32066;49.474;11.106;2022-12-29T03:07:56;4.45;;;1.80;;
46355;SDS011;32066;49.474;11.106;2022-12-29T03:10:30;5.75;;;2.00;;
46355;SDS011;32066;49.474;11.106;2022-12-29T03:13:07;5.22;;;1.83;;
46355;SDS011;32066;49.474;11.106;2022-12-29T03:16:01;4.07;;;1.75;;
46355;SDS011;32066;49.474;11.106;2022-12-29T03:18:44;4.78;;;2.03;;
46355;SDS011;32066;49.474;11.106;2022-12-29T03:21:17;4.45;;;1.70;;
46355;SDS011;32066;49.474;11.106;2022-12-29T03:24:09;8.68;;;2.08;;
46355;SDS011;32066;49.474;11.106;2022-12-29T03:26:37;4.10;;;1.73;;
46355;SDS011;32066;49.474;11.106;2022-12-29T03:29:06;4.85;;;1.80;;
46355;SDS011;32066;49.474;11.106;2022-12-29T03:31:34;4.60;;;1.80;;
46355;SDS011;32066;49.474;11.106;2022-12-29T03:34:04;4.00;;;1.73;;
46355;SDS011;32066;49.474;11.106;2022-12-29T03:36:35;5.97;;;1.70;;
46355;SDS011;32066;49.474;11.106;2022-12-29T03:39:08;4.75;;;1.70;;
46355;SDS011;32066;49.474;11.106;2022-12-29T03:41:37;4.75;;;1.80;;
46355;SDS011;32066;49.474;11.106;2022-12-29T03:44:09;3.90;;;1.75;;
46355;SDS011;32066;49.474;11.106;2022-12-29T03:46:37;4.35;;;1.73;;
46355;SDS011;32066;49.474;11.106;2022-12-29T03:49:06;3.55;;;1.50;;
46355;SDS011;32066;49.474;11.106;2022-12-29T03:51:33;4.25;;;1.83;;
46355;SDS011;32066;49.474;11.106;2022-12-29T03:54:01;4.05;;;1.85;;
46355;SDS011;32066;49.474;11.106;2022-12-29T03:56:28;4.63;;;2.08;;
46355;SDS011;32066;49.474;11.106;2022-12-29T03:58:56;4.63;;;1.73;;
46355;SDS011;32066;49.474;11.106;2022-12-29T04:01:30;3.85;;;1.58;;
46355;SDS011;32066;49.474;11.106;2022-12-29T04:03:56;6.13;;;1.83;;
46355;SDS011;32066;49.474;11.106;2022-12-29T04:06:25;3.83;;;1.55;;
46355;SDS011;32066;49.474;11.106;2022-12-29T04:08:59;4.78;;;1.90;;
46355;SDS011;32066;49.474;11.106;2022-12-29T04:11:28;4.38;;;1.30;;
46355;SDS011;32066;49.474;11.106;2022-12-29T04:13:55;4.97;;;1.92;;
46355;SDS011;32066;49.474;11.106;2022-12-29T04:16:24;5.00;;;2.00;;
46355;SDS011;32066;49.474;11.106;2022-12-29T04:18:51;4.18;;;1.77;;
46355;SDS011;32066;49.474;11.106;2022-12-29T04:21:18;4.35;;;1.73;;
46355;SDS011;32066;49.474;11.106;2022-12-29T04:23:45;4.13;;;1.77;;
46355;SDS011;32066;49.474;11.106;2022-12-29T04:26:13;4.30;;;1.52;;
46355;SDS011;32066;49.474;11.106;2022-12-29T04:28:49;4.82;;;1.70;;
46355;SDS011;32066;49.474;11.106;2022-12-29T04:31:26;4.95;;;1.80;;
46355;SDS011;32066;49.474;11.106;2022-12-29T04:33:53;4.82;;;1.70;;
46355;SDS011;32066;49.474;11.106;2022-12-29T04:36:22;5.43;;;1.70;;
46355;SDS011;32066;49.474;11.106;2022-12-29T04:38:50;4.47;;;1.98;;
46355;SDS011;32066;49.474;11.106;2022-12-29T04:41:17;6.60;;;2.22;;
46355;SDS011;32066;49.474;11.106;2022-12-29T04:43:44;4.38;;;1.70;;
46355;SDS011;32066;49.474;11.106;2022-12-29T04:46:11;4.65;;;1.83;;
46355;SDS011;32066;49.474;11.106;2022-12-29T04:48:52;4.85;;;1.50;;
46355;SDS011;32066;49.474;11.106;2022-12-29T04:51:29;3.85;;;1.75;;
46355;SDS011;32066;49.474;11.106;2022-12-29T04:53:57;4.55;;;1.73;;
46355;SDS011;32066;49.474;11.106;2022-12-29T04:56:25;6.22;;;1.70;;
46355;SDS011;32066;49.474;11.106;2022-12-29T04:58:52;5.32;;;1.50;;
46355;SDS011;32066;49.474;11.106;2022-12-29T05:01:20;4.53;;;1.60;;
46355;SDS011;32066;49.474;11.106;2022-12-29T05:03:49;4.32;;;1.50;;
46355;SDS011;32066;49.474;11.106;2022-12-29T05:06:17;4.20;;;1.52;;
46355;SDS011;32066;49.474;11.106;2022-12-29T05:08:44;3.95;;;1.50;;
46355;SDS011;32066;49.474;11.106;2022-12-29T05:11:12;4.28;;;1.58;;
46355;SDS011;32066;49.474;11.106;2022-12-29T05:13:40;4.38;;;1.90;;
46355;SDS011;32066;49.474;11.106;2022-12-29T05:16:07;3.78;;;1.70;;
46355;SDS011;32066;49.474;11.106;2022-12-29T05:18:34;4.47;;;1.75;;
46355;SDS011;32066;49.474;11.106;2022-12-29T05:21:02;4.50;;;1.58;;
46355;SDS011;32066;49.474;11.106;2022-12-29T05:23:29;4.60;;;1.90;;
46355;SDS011;32066;49.474;11.106;2022-12-29T05:26:00;3.75;;;1.58;;
46355;SDS011;32066;49.474;11.106;2022-12-29T05:28:49;4.03;;;1.90;;
46355;SDS011;32066;49.474;11.106;2022-12-29T05:31:18;3.97;;;1.80;;
46355;SDS011;32066;49.474;11.106;2022-12-29T05:33:45;6.20;;;1.70;;
46355;SDS011;32066;49.474;11.106;2022-12-29T05:36:12;3.47;;;1.58;;
46355;SDS011;32066;49.474;11.106;2022-12-29T05:38:43;5.32;;;1.50;;
46355;SDS011;32066;49.474;11.106;2022-12-29T05:41:10;4.32;;;1.70;;
46355;SDS011;32066;49.474;11.106;2022-12-29T05:43:50;8.18;;;1.80;;
46355;SDS011;32066;49.474;11.106;2022-12-29T05:46:29;3.53;;;1.45;;
46355;SDS011;32066;49.474;11.106;2022-12-29T05:49:07;3.58;;;1.45;;
46355;SDS011;32066;49.474;11.106;2022-12-29T05:52:07;4.20;;;1.60;;
46355;SDS011;32066;49.474;11.106;2022-12-29T05:54:34;4.00;;;1.50;;
46355;SDS011;32066;49.474;11.106;2022-12-29T05:57:03;5.07;;;1.63;;
46355;SDS011;32066;49.474;11.106;2022-12-29T05:59:33;4.90;;;1.42;;
46355;SDS011;32066;49.474;11.106;2022-12-29T06:02:00;4.07;;;1.70;;
46355;SDS011;32066;49.474;11.106;2022-12-29T06:04:27;6.32;;;2.17;;
46355;SDS011;32066;49.474;11.106;2022-12-29T06:06:54;4.90;;;1.85;;
46355;SDS011;32066;49.474;11.106;2022-12-29T06:09:36;4.30;;;1.58;;
46355;SDS011;32066;49.474;11.106;2022-12-29T06:12:04;5.05;;;1.80;;
46355;SDS011;32066;49.474;11.106;2022-12-29T06:14:33;5.68;;;1.90;;
46355;SDS011;32066;49.474;11.106;2022-12-29T06:17:02;4.05;;;1.73;;
46355;SDS011;32066;49.474;11.106;2022-12-29T06:19:29;4.85;;;1.90;;
46355;SDS011;32066;49.474;11.106;2022-12-29T06:21:55;5.80;;;2.00;;
46355;SDS011;32066;49.474;11.106;2022-12-29T06:24:22;5.70;;;1.85;;
46355;SDS011;32066;49.474;11.106;2022-12-29T06:26:49;4.50;;;1.70;;
46355;SDS011;32066;49.474;11.106;2022-12-29T06:29:16;5.20;;;2.10;;
46355;SDS011;32066;49.474;11.106;2022-12-29T06:31:44;3.92;;;1.80;;
46355;SDS011;32066;49.474;11.106;2022-12-29T06:34:11;3.88;;;1.45;;
46355;SDS011;32066;49.474;11.106;2022-12-29T06:36:38;4.45;;;1.70;;
46355;SDS011;32066;49.474;11.106;2022-12-29T06:39:05;4.03;;;1.85;;
46355;SDS011;32066;49.474;11.106;2022-12-29T06:41:33;5.25;;;1.83;;
46355;SDS011;32066;49.474;11.106;2022-12-29T06:44:16;3.90;;;1.60;;
46355;SDS011;32066;49.474;11.106;2022-12-29T06:46:55;3.85;;;1.52;;
46355;SDS011;32066;49.474;11.106;2022-12-29T06:49:22;4.57;;;1.90;;
46355;SDS011;32066;49.474;11.106;2022-12-29T06:51:49;4.57;;;1.80;;
46355;SDS011;32066;49.474;11.106;2022-12-29T06:54:16;5.45;;;1.80;;
46355;SDS011;32066;49.474;11.106;2022-12-29T06:56:43;5.03;;;1.67;;
46355;SDS011;32066;49.474;11.106;2022-12-29T06:59:10;5.85;;;1.80;;
46355;SDS011;32066;49.474;11.106;2022-12-29T07:01:36;4.43;;;1.48;;
46355;SDS011;32066;49.474;11.106;2022-12-29T07:04:05;3.97;;;1.55;;
46355;SDS011;32066;49.474;11.106;2022-12-29T07:06:32;3.72;;;1.30;;
46355;SDS011;32066;49.474;11.106;2022-12-29T07:08:58;6.32;;;1.83;;
46355;SDS011;32066;49.474;11.106;2022-12-29T07:11:25;3.90;;;1.60;;
46355;SDS011;32066;49.474;11.106;2022-12-29T07:13:52;4.50;;;1.65;;
46355;SDS011;32066;49.474;11.106;2022-12-29T07:16:19;4.25;;;1.67;;
46355;SDS011;32066;49.474;11.106;2022-12-29T07:18:46;6.53;;;1.80;;
46355;SDS011;32066;49.474;11.106;2022-12-29T07:21:14;6.00;;;1.83;;
46355;SDS011;32066;49.474;11.106;2022-12-29T07:23:41;5.47;;;2.00;;
46355;SDS011;32066;49.474;11.106;2022-12-29T07:26:09;5.32;;;1.92;;
46355;SDS011;32066;49.474;11.106;2022-12-29T07:28:38;3.88;;;1.65;;
46355;SDS011;32066;49.474;11.106;2022-12-29T07:31:08;4.63;;;1.73;;
46355;SDS011;32066;49.474;11.106;2022-12-29T07:33:41;3.58;;;1.50;;
46355;SDS011;32066;49.474;11.106;2022-12-29T07:36:09;6.03;;;1.88;;
46355;SDS011;32066;49.474;11.106;2022-12-29T07:38:37;3.70;;;1.40;;
46355;SDS011;32066;49.474;11.106;2022-12-29T07:41:04;4.20;;;1.50;;
46355;SDS011;32066;49.474;11.106;2022-12-29T07:43:32;4.70;;;1.60;;
46355;SDS011;32066;49.474;11.106;2022-12-29T07:46:21;6.38;;;1.90;;
46355;SDS011;32066;49.474;11.106;2022-12-29T07:48:48;4.75;;;1.67;;
46355;SDS011;32066;49.474;11.106;2022-12-29T07:51:15;4.28;;;1.52;;
46355;SDS011;32066;49.474;11.106;2022-12-29T07:53:43;10.82;;;1.88;;
46355;SDS011;32066;49.474;11.106;2022-12-29T07:56:10;4.65;;;1.60;;
46355;SDS011;32066;49.474;11.106;2022-12-29T07:58:37;4.97;;;1.90;;
46355;SDS011;32066;49.474;11.106;2022-12-29T08:01:03;4.85;;;1.65;;
46355;SDS011;32066;49.474;11.106;2022-12-29T08:03:31;4.50;;;2.08;;
46355;SDS011;32066;49.474;11.106;2022-12-29T08:05:57;4.20;;;1.65;;
46355;SDS011;32066;49.474;11.106;2022-12-29T08:08:24;6.53;;;1.73;;
46355;SDS011;32066;49.474;11.106;2022-12-29T08:10:52;5.88;;;1.92;;
46355;SDS011;32066;49.474;11.106;2022-12-29T08:13:19;5.18;;;1.60;;
46355;SDS011;32066;49.474;11.106;2022-12-29T08:15:46;4.43;;;1.90;;
46355;SDS011;32066;49.474;11.106;2022-12-29T08:18:13;4.38;;;1.80;;
46355;SDS011;32066;49.474;11.106;2022-12-29T08:20:40;7.78;;;2.40;;
46355;SDS011;32066;49.474;11.106;2022-12-29T08:23:06;25.83;;;10.02;;
46355;SDS011;32066;49.474;11.106;2022-12-29T08:25:33;16.73;;;6.13;;
46355;SDS011;32066;49.474;11.106;2022-12-29T08:28:02;12.50;;;4.53;;
46355;SDS011;32066;49.474;11.106;2022-12-29T08:30:28;10.27;;;3.92;;
46355;SDS011;32066;49.474;11.106;2022-12-29T08:32:55;8.15;;;3.25;;
46355;SDS011;32066;49.474;11.106;2022-12-29T08:35:22;6.20;;;3.00;;
46355;SDS011;32066;49.474;11.106;2022-12-29T08:37:49;8.15;;;2.70;;
46355;SDS011;32066;49.474;11.106;2022-12-29T08:40:16;6.03;;;2.38;;
46355;SDS011;32066;49.474;11.106;2022-12-29T08:42:43;5.35;;;2.42;;
46355;SDS011;32066;49.474;11.106;2022-12-29T08:45:11;7.47;;;2.97;;
46355;SDS011;32066;49.474;11.106;2022-12-29T08:47:38;7.32;;;2.20;;
46355;SDS011;32066;49.474;11.106;2022-12-29T08:50:05;5.13;;;2.20;;
46355;SDS011;32066;49.474;11.106;2022-12-29T08:52:33;6.47;;;2.10;;
46355;SDS011;32066;49.474;11.106;2022-12-29T08:54:59;5.43;;;2.35;;
46355;SDS011;32066;49.474;11.106;2022-12-29T08:57:26;4.85;;;2.00;;
46355;SDS011;32066;49.474;11.106;2022-12-29T09:00:04;4.40;;;2.00;;
46355;SDS011;32066;49.474;11.106;2022-12-29T09:02:33;5.63;;;2.10;;
46355;SDS011;32066;49.474;11.106;2022-12-29T09:05:00;5.05;;;1.85;;
46355;SDS011;32066;49.474;11.106;2022-12-29T09:07:27;6.07;;;2.38;;
46355;SDS011;32066;49.474;11.106;2022-12-29T09:09:53;4.90;;;2.00;;
46355;SDS011;32066;49.474;11.106;2022-12-29T09:12:20;5.93;;;2.20;;
46355;SDS011;32066;49.474;11.106;2022-12-29T09:14:47;3.72;;;1.77;;
46355;SDS011;32066;49.474;11.106;2022-12-29T09:17:14;6.30;;;2.00;;
46355;SDS011;32066;49.474;11.106;2022-12-29T09:20:00;5.82;;;2.05;;
46355;SDS011;32066;49.474;11.106;2022-12-29T09:22:26;5.95;;;2.28;;
46355;SDS011;32066;49.474;11.106;2022-12-29T09:24:53;6.40;;;2.13;;
46355;SDS011;32066;49.474;11.106;2022-12-29T09:27:20;5.00;;;2.30;;
46355;SDS011;32066;49.474;11.106;2022-12-29T09:29:47;5.88;;;2.38;;
46355;SDS011;32066;49.474;11.106;2022-12-29T09:32:14;6.70;;;1.98;;
46355;SDS011;32066;49.474;11.106;2022-12-29T09:34:40;4.15;;;1.90;;
46355;SDS011;32066;49.474;11.106;2022-12-29T09:37:08;4.50;;;1.70;;
46355;SDS011;32066;49.474;11.106;2022-12-29T09:39:35;5.32;;;1.95;;
46355;SDS011;32066;49.474;11.106;2022-12-29T09:42:04;5.63;;;1.95;;
46355;SDS011;32066;49.474;11.106;2022-12-29T09:44:40;5.90;;;2.20;;
46355;SDS011;32066;49.474;11.106;2022-12-29T09:47:15;4.57;;;1.77;;
46355;SDS011;32066;49.474;11.106;2022-12-29T09:49:45;4.95;;;1.80;;
46355;SDS011;32066;49.474;11.106;2022-12-29T09:52:18;4.28;;;1.67;;
46355;SDS011;32066;49.474;11.106;2022-12-29T09:54:49;6.93;;;2.13;;
46355;SDS011;32066;49.474;11.106;2022-12-29T09:57:21;5.28;;;2.17;;
46355;SDS011;32066;49.474;11.106;2022-12-29T09:59:52;5.10;;;1.90;;
46355;SDS011;32066;49.474;11.106;2022-12-29T10:02:29;5.22;;;1.80;;
46355;SDS011;32066;49.474;11.106;2022-12-29T10:05:00;4.60;;;1.70;;
46355;SDS011;32066;49.474;11.106;2022-12-29T10:07:35;4.43;;;1.80;;
46355;SDS011;32066;49.474;11.106;2022-12-29T10:10:14;4.47;;;1.70;;
46355;SDS011;32066;49.474;11.106;2022-12-29T10:12:53;4.53;;;2.08;;
46355;SDS011;32066;49.474;11.106;2022-12-29T10:15:35;6.00;;;2.05;;
46355;SDS011;32066;49.474;11.106;2022-12-29T10:18:15;7.22;;;2.10;;
46355;SDS011;32066;49.474;11.106;2022-12-29T10:20:52;5.35;;;1.95;;
46355;SDS011;32066;49.474;11.106;2022-12-29T10:23:26;6.97;;;1.95;;
46355;SDS011;32066;49.474;11.106;2022-12-29T10:25:57;4.57;;;1.83;;
46355;SDS011;32066;49.474;11.106;2022-12-29T10:28:29;6.30;;;1.73;;
46355;SDS011;32066;49.474;11.106;2022-12-29T10:31:01;7.60;;;1.83;;
46355;SDS011;32066;49.474;11.106;2022-12-29T10:33:32;5.85;;;2.05;;
46355;SDS011;32066;49.474;11.106;2022-12-29T10:36:02;6.30;;;2.10;;
46355;SDS011;32066;49.474;11.106;2022-12-29T10:38:38;5.28;;;2.10;;
46355;SDS011;32066;49.474;11.106;2022-12-29T10:41:15;6.47;;;1.92;;
46355;SDS011;32066;49.474;11.106;2022-12-29T10:43:48;4.28;;;2.25;;
46355;SDS011;32066;49.474;11.106;2022-12-29T10:46:17;6.43;;;1.90;;
46355;SDS011;32066;49.474;11.106;2022-12-29T10:48:47;6.72;;;1.80;;
46355;SDS011;32066;49.474;11.106;2022-12-29T10:51:15;3.88;;;1.70;;
46355;SDS011;32066;49.474;11.106;2022-12-29T10:53:50;5.47;;;2.00;;
46355;SDS011;32066;49.474;11.106;2022-12-29T10:56:22;4.63;;;2.10;;
46355;SDS011;32066;49.474;11.106;2022-12-29T10:58:56;4.55;;;2.03;;
46355;SDS011;32066;49.474;11.106;2022-12-29T11:01:28;6.75;;;2.20;;
46355;SDS011;32066;49.474;11.106;2022-12-29T11:04:04;7.07;;;2.10;;
46355;SDS011;32066;49.474;11.106;2022-12-29T11:06:37;5.10;;;2.30;;
46355;SDS011;32066;49.474;11.106;2022-12-29T11:09:09;7.32;;;2.30;;
46355;SDS011;32066;49.474;11.106;2022-12-29T11:11:41;6.05;;;2.05;;
46355;SDS011;32066;49.474;11.106;2022-12-29T11:14:10;8.00;;;2.47;;
46355;SDS011;32066;49.474;11.106;2022-12-29T11:16:39;5.75;;;2.20;;
46355;SDS011;32066;49.474;11.106;2022-12-29T11:19:19;5.82;;;2.20;;
46355;SDS011;32066;49.474;11.106;2022-12-29T11:21:47;4.75;;;2.30;;
46355;SDS011;32066;49.474;11.106;2022-12-29T11:24:20;5.60;;;1.88;;
46355;SDS011;32066;49.474;11.106;2022-12-29T11:26:49;6.45;;;2.08;;
46355;SDS011;32066;49.474;11.106;2022-12-29T11:29:22;6.30;;;1.98;;
46355;SDS011;32066;49.474;11.106;2022-12-29T11:31:51;4.15;;;1.90;;
46355;SDS011;32066;49.474;11.106;2022-12-29T11:34:20;4.22;;;1.77;;
46355;SDS011;32066;49.474;11.106;2022-12-29T11:36:50;4.63;;;1.90;;
46355;SDS011;32066;49.474;11.106;2022-12-29T11:39:28;4.00;;;1.67;;
46355;SDS011;32066;49.474;11.106;2022-12-29T11:41:59;4.90;;;1.73;;
46355;SDS011;32066;49.474;11.106;2022-12-29T11:44:35;4.85;;;1.80;;
46355;SDS011;32066;49.474;11.106;2022-12-29T11:47:04;6.15;;;2.05;;
46355;SDS011;32066;49.474;11.106;2022-12-29T11:49:34;4.57;;;1.90;;
46355;SDS011;32066;49.474;11.106;2022-12-29T11:52:01;6.20;;;1.88;;
46355;SDS011;32066;49.474;11.106;2022-12-29T11:54:30;9.18;;;2.10;;
46355;SDS011;32066;49.474;11.106;2022-12-29T11:57:08;5.15;;;1.67;;
46355;SDS011;32066;49.474;11.106;2022-12-29T11:59:39;4.63;;;2.03;;
46355;SDS011;32066;49.474;11.106;2022-12-29T12:02:11;4.68;;;2.00;;
46355;SDS011;32066;49.474;11.106;2022-12-29T12:04:48;5.93;;;2.00;;
46355;SDS011;32066;49.474;11.106;2022-12-29T12:07:20;5.95;;;2.05;;
46355;SDS011;32066;49.474;11.106;2022-12-29T12:09:54;7.85;;;2.50;;
46355;SDS011;32066;49.474;11.106;2022-12-29T12:12:27;6.32;;;2.00;;
46355;SDS011;32066;49.474;11.106;2022-12-29T12:14:59;4.75;;;2.05;;
46355;SDS011;32066;49.474;11.106;2022-12-29T12:17:40;5.28;;;2.10;;
46355;SDS011;32066;49.474;11.106;2022-12-29T12:20:14;4.90;;;2.10;;
46355;SDS011;32066;49.474;11.106;2022-12-29T12:22:49;5.90;;;2.00;;
46355;SDS011;32066;49.474;11.106;2022-12-29T12:25:23;5.40;;;1.73;;
46355;SDS011;32066;49.474;11.106;2022-12-29T12:27:56;4.55;;;1.90;;
46355;SDS011;32066;49.474;11.106;2022-12-29T12:30:26;4.35;;;1.90;;
46355;SDS011;32066;49.474;11.106;2022-12-29T12:32:57;7.30;;;2.30;;
46355;SDS011;32066;49.474;11.106;2022-12-29T12:35:31;7.13;;;2.40;;
46355;SDS011;32066;49.474;11.106;2022-12-29T12:38:06;5.93;;;2.13;;
46355;SDS011;32066;49.474;11.106;2022-12-29T12:46:45;6.10;;;2.20;;
46355;SDS011;32066;49.474;11.106;2022-12-29T12:49:30;7.53;;;1.98;;
46355;SDS011;32066;49.474;11.106;2022-12-29T12:52:07;4.05;;;2.00;;
46355;SDS011;32066;49.474;11.106;2022-12-29T12:54:43;6.70;;;2.10;;
46355;SDS011;32066;49.474;11.106;2022-12-29T12:57:25;8.80;;;2.42;;
46355;SDS011;32066;49.474;11.106;2022-12-29T13:00:01;6.13;;;2.17;;
46355;SDS011;32066;49.474;11.106;2022-12-29T13:02:35;6.45;;;2.20;;
46355;SDS011;32066;49.474;11.106;2022-12-29T13:05:15;5.00;;;1.90;;
46355;SDS011;32066;49.474;11.106;2022-12-29T13:07:59;5.60;;;2.05;;
46355;SDS011;32066;49.474;11.106;2022-12-29T13:10:42;4.85;;;1.85;;
46355;SDS011;32066;49.474;11.106;2022-12-29T13:13:25;6.60;;;2.10;;
46355;SDS011;32066;49.474;11.106;2022-12-29T13:16:06;5.00;;;2.03;;
46355;SDS011;32066;49.474;11.106;2022-12-29T13:18:44;8.15;;;2.50;;
46355;SDS011;32066;49.474;11.106;2022-12-29T13:21:20;5.75;;;2.08;;
46355;SDS011;32066;49.474;11.106;2022-12-29T13:23:54;4.78;;;2.00;;
46355;SDS011;32066;49.474;11.106;2022-12-29T13:26:25;6.38;;;2.30;;
46355;SDS011;32066;49.474;11.106;2022-12-29T13:29:05;5.47;;;2.15;;
46355;SDS011;32066;49.474;11.106;2022-12-29T13:31:43;7.13;;;1.92;;
46355;SDS011;32066;49.474;11.106;2022-12-29T13:34:18;7.75;;;2.63;;
46355;SDS011;32066;49.474;11.106;2022-12-29T13:36:52;7.57;;;2.95;;
46355;SDS011;32066;49.474;11.106;2022-12-29T13:39:23;5.93;;;2.20;;
46355;SDS011;32066;49.474;11.106;2022-12-29T13:41:53;6.50;;;2.50;;
46355;SDS011;32066;49.474;11.106;2022-12-29T13:44:24;7.05;;;2.40;;
46355;SDS011;32066;49.474;11.106;2022-12-29T13:46:54;5.80;;;2.97;;
46355;SDS011;32066;49.474;11.106;2022-12-29T13:49:25;6.20;;;2.33;;
46355;SDS011;32066;49.474;11.106;2022-12-29T13:51:54;6.57;;;2.40;;
46355;SDS011;32066;49.474;11.106;2022-12-29T13:54:27;5.95;;;2.47;;
46355;SDS011;32066;49.474;11.106;2022-12-29T13:57:02;7.10;;;2.35;;
46355;SDS011;32066;49.474;11.106;2022-12-29T13:59:38;6.50;;;2.28;;
46355;SDS011;32066;49.474;11.106;2022-12-29T14:02:13;6.15;;;2.15;;
46355;SDS011;32066;49.474;11.106;2022-12-29T14:04:57;9.88;;;2.60;;
46355;SDS011;32066;49.474;11.106;2022-12-29T14:07:26;6.43;;;2.60;;
46355;SDS011;32066;49.474;11.106;2022-12-29T14:09:54;7.95;;;2.90;;
46355;SDS011;32066;49.474;11.106;2022-12-29T14:12:30;6.00;;;2.75;;
46355;SDS011;32066;49.474;11.106;2022-12-29T14:15:13;6.70;;;2.50;;
46355;SDS011;32066;49.474;11.106;2022-12-29T14:17:45;7.22;;;2.60;;
46355;SDS011;32066;49.474;11.106;2022-12-29T14:20:29;8.65;;;2.85;;
46355;SDS011;32066;49.474;11.106;2022-12-29T14:22:57;7.25;;;2.72;;
46355;SDS011;32066;49.474;11.106;2022-12-29T14:28:23;5.10;;;2.13;;
46355;SDS011;32066;49.474;11.106;2022-12-29T14:30:53;5.35;;;2.20;;
46355;SDS011;32066;49.474;11.106;2022-12-29T14:33:22;5.80;;;2.03;;
46355;SDS011;32066;49.474;11.106;2022-12-29T14:35:52;6.25;;;2.40;;
46355;SDS011;32066;49.474;11.106;2022-12-29T14:38:21;6.35;;;2.20;;
46355;SDS011;32066;49.474;11.106;2022-12-29T14:40:50;7.22;;;2.30;;
46355;SDS011;32066;49.474;11.106;2022-12-29T14:43:19;6.05;;;2.17;;
46355;SDS011;32066;49.474;11.106;2022-12-29T14:45:53;5.18;;;2.25;;
46355;SDS011;32066;49.474;11.106;2022-12-29T14:48:30;6.55;;;2.50;;
46355;SDS011;32066;49.474;11.106;2022-12-29T14:51:02;7.43;;;2.83;;
46355;SDS011;32066;49.474;11.106;2022-12-29T14:53:45;5.40;;;2.40;;
46355;SDS011;32066;49.474;11.106;2022-12-29T14:56:13;5.40;;;2.50;;
46355;SDS011;32066;49.474;11.106;2022-12-29T14:58:46;6.43;;;2.92;;
46355;SDS011;32066;49.474;11.106;2022-12-29T15:01:19;4.68;;;2.42;;
46355;SDS011;32066;49.474;11.106;2022-12-29T15:03:50;6.00;;;2.60;;
46355;SDS011;32066;49.474;11.106;2022-12-29T15:06:20;7.65;;;3.30;;
46355;SDS011;32066;49.474;11.106;2022-12-29T15:08:50;6.30;;;2.55;;
46355;SDS011;32066;49.474;11.106;2022-12-29T15:11:21;7.00;;;2.65;;
46355;SDS011;32066;49.474;11.106;2022-12-29T15:13:49;9.27;;;3.40;;
46355;SDS011;32066;49.474;11.106;2022-12-29T15:16:24;6.32;;;3.10;;
46355;SDS011;32066;49.474;11.106;2022-12-29T15:18:55;6.13;;;2.85;;
46355;SDS011;32066;49.474;11.106;2022-12-29T15:21:23;5.10;;;2.67;;